KFOK/FOK METAR and TAF weather

Enter ICAO airport designator
Station Type Date Time Source
KFOK METAR 2021/04/13 21:53 UTC NOAA

KFOK 132153Z 15007KT 120V180 10SM CLR 11/04 A3005 RMK AO2 SLP178 T01060044


Station Type Date Time Source
KFOK Decoded METAR 2021/04/13 21:53 UTC NOAA

THE GABRESKI AIRPORT, NY, United States (KFOK) 40-51N 072-37W 33M
Apr 13, 2021 - 05:53 PM EDT / 2021.04.13 2153 UTC
Wind: from the SSE (150 degrees) at 8 MPH (7 KT) (direction variable):0
Visibility: 10 mile(s):0
Sky conditions: clear
Temperature: 51.1 F (10.6 C)
Dew Point: 39.9 F (4.4 C)
Relative Humidity: 65%
Pressure (altimeter): 30.05 in. Hg (1017 hPa)
ob: KFOK 132153Z 15007KT 120V180 10SM CLR 11/04 A3005 RMK AO2 SLP178 T01060044
cycle: 22

Station Type Date Time Source
KFOK TAF UTC NOAA

Error!

Example: see airport list